Time;durP1;ratioP1;P1;durP2;ratioP2;P2;SDS_P1;SDS_P2;PMS_P1;PMS_P2;Temp;Humidity;BMP_temperature;BMP_pressure;BME280_temperature;BME280_humidity;BME280_pressure;Samples;Min_cycle;Max_cycle;Signal;HPM_P1;HPM_P2
2022/09/30 00:01:28;;;;;;;7.70;2.60;;;;;;;;;;4978037;28;20176;-42
2022/09/30 00:03:55;;;;;;;7.93;3.00;;;;;;;;;;4982532;28;20181;-42
2022/09/30 00:06:21;;;;;;;9.30;3.03;;;;;;;;;;4983041;28;20253;-43
2022/09/30 00:08:47;;;;;;;6.40;2.70;;;;;;;;;;4981556;28;20235;-42
2022/09/30 00:11:17;;;;;;;8.90;3.00;;;;;;;;;;4985825;28;20751;-43
2022/09/30 00:13:44;;;;;;;7.10;2.63;;;;;;;;;;4985512;28;20209;-43
2022/09/30 00:16:11;;;;;;;7.03;3.17;;;;;;;;;;4983856;28;20834;-43
2022/09/30 00:18:38;;;;;;;7.90;3.03;;;;;;;;;;4983809;28;20193;-43
2022/09/30 00:21:05;;;;;;;7.07;2.90;;;;;;;;;;4986213;28;20185;-42
2022/09/30 00:23:31;;;;;;;6.77;3.03;;;;;;;;;;4985635;28;20174;-43
2022/09/30 00:26:01;;;;;;;6.63;2.80;;;;;;;;;;4982290;28;21183;-41
2022/09/30 00:28:28;;;;;;;8.50;3.07;;;;;;;;;;4984715;28;20830;-42
2022/09/30 00:30:57;;;;;;;8.60;3.20;;;;;;;;;;4985173;28;20716;-42
2022/09/30 00:33:24;;;;;;;6.50;3.00;;;;;;;;;;4983577;28;20187;-42
2022/09/30 00:35:50;;;;;;;5.97;3.03;;;;;;;;;;4985457;28;20188;-41
2022/09/30 00:38:16;;;;;;;8.43;3.00;;;;;;;;;;4995413;28;20248;-42
2022/09/30 00:40:42;;;;;;;6.83;3.00;;;;;;;;;;4982265;28;20773;-42
2022/09/30 00:43:40;;;;;;;6.17;2.90;;;;;;;;;;4985126;28;20181;-42
2022/09/30 00:46:08;;;;;;;5.80;2.73;;;;;;;;;;4991846;28;20973;-42
2022/09/30 00:48:36;;;;;;;6.20;2.77;;;;;;;;;;4981608;28;20181;-42
2022/09/30 00:51:03;;;;;;;6.83;3.03;;;;;;;;;;4983675;28;20181;-43
2022/09/30 00:53:33;;;;;;;5.60;3.00;;;;;;;;;;4984505;28;20185;-43
2022/09/30 00:56:04;;;;;;;5.27;3.10;;;;;;;;;;4994322;28;20758;-43
2022/09/30 00:58:46;;;;;;;8.30;3.17;;;;;;;;;;4986589;28;20184;-43
2022/09/30 01:01:13;;;;;;;5.83;3.30;;;;;;;;;;4980554;28;20608;-43
2022/09/30 01:03:41;;;;;;;9.27;3.30;;;;;;;;;;4979702;28;20183;-43
2022/09/30 01:06:07;;;;;;;6.33;3.23;;;;;;;;;;4982997;28;20196;-41
2022/09/30 01:08:35;;;;;;;8.20;3.40;;;;;;;;;;4984521;28;20184;-43
2022/09/30 01:11:01;;;;;;;9.00;3.20;;;;;;;;;;4983677;28;20323;-42
2022/09/30 01:13:28;;;;;;;10.23;3.70;;;;;;;;;;4979653;28;20586;-43
2022/09/30 01:15:57;;;;;;;12.70;3.37;;;;;;;;;;4980350;28;20420;-43
2022/09/30 01:18:36;;;;;;;8.00;3.17;;;;;;;;;;4980891;28;20193;-43
2022/09/30 01:21:18;;;;;;;6.27;3.13;;;;;;;;;;4983161;28;20313;-42
2022/09/30 01:24:01;;;;;;;5.87;2.80;;;;;;;;;;4981740;28;20569;-43
2022/09/30 01:26:39;;;;;;;5.33;2.70;;;;;;;;;;4979793;28;20278;-43
2022/09/30 01:29:21;;;;;;;8.57;3.13;;;;;;;;;;4982709;28;20242;-43
2022/09/30 01:31:48;;;;;;;8.13;2.87;;;;;;;;;;4982126;28;20161;-43
2022/09/30 01:34:14;;;;;;;8.17;3.10;;;;;;;;;;4984215;28;20181;-43
2022/09/30 01:37:02;;;;;;;10.77;3.70;;;;;;;;;;4981884;28;20173;-43
2022/09/30 01:39:29;;;;;;;7.67;3.00;;;;;;;;;;4979548;28;20243;-43
2022/09/30 01:41:55;;;;;;;6.23;2.53;;;;;;;;;;4980346;28;20243;-43
2022/09/30 01:44:24;;;;;;;6.13;2.97;;;;;;;;;;4985697;28;20181;-43
2022/09/30 01:46:58;;;;;;;6.80;2.93;;;;;;;;;;4985071;28;20291;-43
2022/09/30 01:49:38;;;;;;;6.60;3.20;;;;;;;;;;4982806;28;20215;-43
2022/09/30 01:52:16;;;;;;;4.40;2.67;;;;;;;;;;4977883;28;20185;-42
2022/09/30 01:54:45;;;;;;;6.70;2.80;;;;;;;;;;4980284;28;20452;-42
2022/09/30 01:57:15;;;;;;;6.70;2.90;;;;;;;;;;4980075;28;20207;-41
2022/09/30 01:59:51;;;;;;;5.73;2.40;;;;;;;;;;4981641;28;20724;-41
2022/09/30 02:02:18;;;;;;;8.40;2.97;;;;;;;;;;4978053;28;20511;-42
2022/09/30 02:04:48;;;;;;;3.33;2.60;;;;;;;;;;4980705;28;20185;-42
2022/09/30 02:07:23;;;;;;;8.70;2.87;;;;;;;;;;4981605;28;20185;-42
2022/09/30 02:10:10;;;;;;;5.17;2.70;;;;;;;;;;4983547;28;20756;-42
2022/09/30 02:12:41;;;;;;;6.63;2.90;;;;;;;;;;4990988;28;20405;-41
2022/09/30 02:15:11;;;;;;;6.87;2.80;;;;;;;;;;4983093;28;21634;-42
2022/09/30 02:17:39;;;;;;;7.00;2.53;;;;;;;;;;4985069;28;20177;-42
2022/09/30 02:20:22;;;;;;;6.27;2.77;;;;;;;;;;4981400;28;20267;-42
2022/09/30 02:22:50;;;;;;;5.27;2.50;;;;;;;;;;4984359;28;20622;-42
2022/09/30 02:25:19;;;;;;;5.90;2.93;;;;;;;;;;4978466;28;20184;-41
2022/09/30 02:27:49;;;;;;;5.83;2.67;;;;;;;;;;4983717;28;20195;-42
2022/09/30 02:30:15;;;;;;;6.37;3.03;;;;;;;;;;4984774;28;20224;-42
2022/09/30 02:32:48;;;;;;;8.13;3.00;;;;;;;;;;4983446;28;20696;-41
2022/09/30 02:35:22;;;;;;;5.43;2.63;;;;;;;;;;4979120;28;20172;-42
2022/09/30 02:37:51;;;;;;;5.53;2.40;;;;;;;;;;4978131;28;20173;-42
2022/09/30 02:40:23;;;;;;;9.43;3.00;;;;;;;;;;4982409;28;20209;-42
2022/09/30 02:42:49;;;;;;;6.30;2.80;;;;;;;;;;4981750;28;20587;-42
2022/09/30 02:45:18;;;;;;;6.90;3.00;;;;;;;;;;4978561;28;20444;-43
2022/09/30 02:48:04;;;;;;;6.33;2.90;;;;;;;;;;4978781;28;20181;-42
2022/09/30 02:50:43;;;;;;;8.13;2.83;;;;;;;;;;4979214;28;20532;-42
2022/09/30 02:53:15;;;;;;;6.67;3.00;;;;;;;;;;4981677;28;20979;-43
2022/09/30 02:56:01;;;;;;;7.70;2.90;;;;;;;;;;4983036;28;20612;-43
2022/09/30 02:58:28;;;;;;;8.33;3.50;;;;;;;;;;4977568;28;20685;-42
2022/09/30 03:00:55;;;;;;;5.87;3.20;;;;;;;;;;4978625;28;20767;-42
2022/09/30 03:03:23;;;;;;;8.77;3.60;;;;;;;;;;4981285;28;20656;-42
2022/09/30 03:05:50;;;;;;;8.23;3.60;;;;;;;;;;4983104;28;20535;-43
2022/09/30 03:08:16;;;;;;;10.20;3.87;;;;;;;;;;4978911;28;20208;-43
2022/09/30 03:10:42;;;;;;;8.73;3.93;;;;;;;;;;4976697;28;20181;-43
2022/09/30 03:13:35;;;;;;;7.57;4.03;;;;;;;;;;4979820;28;20177;-43
2022/09/30 03:16:20;;;;;;;9.70;3.80;;;;;;;;;;4983729;28;20608;-43
2022/09/30 03:18:57;;;;;;;9.23;4.30;;;;;;;;;;4981872;28;20201;-42
2022/09/30 03:21:42;;;;;;;14.23;4.17;;;;;;;;;;4980066;28;20164;-42
2022/09/30 03:24:26;;;;;;;8.53;3.87;;;;;;;;;;4983935;28;20272;-42
2022/09/30 03:26:52;;;;;;;8.80;3.73;;;;;;;;;;4982131;28;20323;-42
2022/09/30 03:29:24;;;;;;;6.40;3.73;;;;;;;;;;4980944;28;20291;-42
2022/09/30 03:31:50;;;;;;;10.80;3.70;;;;;;;;;;4980623;28;20389;-40
2022/09/30 03:34:16;;;;;;;9.30;3.90;;;;;;;;;;4982928;28;20364;-42
2022/09/30 03:37:01;;;;;;;9.60;3.50;;;;;;;;;;4984927;28;20184;-42
2022/09/30 03:39:37;;;;;;;8.17;3.50;;;;;;;;;;4980087;28;20311;-43
2022/09/30 03:42:22;;;;;;;11.57;4.00;;;;;;;;;;4980590;28;20173;-41
2022/09/30 03:45:21;;;;;;;6.43;3.60;;;;;;;;;;4982358;28;20173;-43
2022/09/30 03:47:50;;;;;;;7.37;3.87;;;;;;;;;;5002893;28;20208;-43
2022/09/30 03:50:20;;;;;;;8.83;3.80;;;;;;;;;;4980297;28;20384;-43
2022/09/30 03:52:47;;;;;;;9.73;4.57;;;;;;;;;;4979583;28;20188;-43
2022/09/30 03:55:14;;;;;;;14.30;4.40;;;;;;;;;;4980740;28;20755;-43
2022/09/30 03:57:41;;;;;;;9.63;3.60;;;;;;;;;;4984332;28;20463;-43
2022/09/30 04:00:08;;;;;;;16.77;4.47;;;;;;;;;;4978320;28;20211;-43
2022/09/30 04:02:36;;;;;;;9.00;4.20;;;;;;;;;;4977841;28;20181;-43
2022/09/30 04:05:03;;;;;;;14.63;3.90;;;;;;;;;;4975992;28;22156;-43
2022/09/30 04:07:29;;;;;;;10.10;3.70;;;;;;;;;;4982840;28;20251;-43
2022/09/30 04:09:55;;;;;;;12.13;3.80;;;;;;;;;;4980258;28;20291;-42
2022/09/30 04:12:21;;;;;;;10.47;3.93;;;;;;;;;;4979629;28;20181;-42
2022/09/30 04:14:48;;;;;;;17.63;4.20;;;;;;;;;;4979403;28;20189;-43
2022/09/30 04:17:14;;;;;;;13.47;4.17;;;;;;;;;;5010748;28;20195;-43
2022/09/30 04:19:40;;;;;;;11.40;4.30;;;;;;;;;;4982674;28;21577;-42
2022/09/30 04:22:06;;;;;;;13.03;4.10;;;;;;;;;;4982724;28;20305;-42
2022/09/30 04:24:32;;;;;;;12.13;4.23;;;;;;;;;;4978145;28;20732;-42
2022/09/30 04:26:59;;;;;;;8.57;4.17;;;;;;;;;;4977770;28;20705;-43
2022/09/30 04:29:25;;;;;;;10.80;4.40;;;;;;;;;;4978451;28;20502;-44
2022/09/30 04:31:51;;;;;;;10.77;4.50;;;;;;;;;;4980303;28;20667;-43
2022/09/30 04:34:17;;;;;;;6.63;4.23;;;;;;;;;;4981304;28;20188;-44
2022/09/30 04:36:43;;;;;;;8.10;4.00;;;;;;;;;;4979879;28;20211;-44
2022/09/30 04:39:09;;;;;;;8.80;4.37;;;;;;;;;;4978095;28;20223;-44
2022/09/30 04:41:36;;;;;;;8.97;4.13;;;;;;;;;;4976282;28;20702;-43
2022/09/30 04:44:05;;;;;;;6.93;4.37;;;;;;;;;;4980262;28;20290;-43
2022/09/30 04:46:31;;;;;;;10.97;4.30;;;;;;;;;;4982540;28;20556;-44
2022/09/30 04:48:59;;;;;;;9.40;4.50;;;;;;;;;;4976344;28;20197;-43
2022/09/30 04:51:26;;;;;;;10.17;4.70;;;;;;;;;;4981918;28;20584;-41
2022/09/30 04:53:52;;;;;;;9.83;5.03;;;;;;;;;;4977692;28;20302;-42
2022/09/30 04:56:18;;;;;;;11.70;5.17;;;;;;;;;;4982889;28;20181;-42
2022/09/30 04:58:44;;;;;;;6.30;4.20;;;;;;;;;;4983365;28;20196;-42
2022/09/30 05:01:11;;;;;;;12.33;4.93;;;;;;;;;;4985576;28;20552;-43
2022/09/30 05:03:38;;;;;;;7.93;4.83;;;;;;;;;;4982260;28;20177;-42
2022/09/30 05:06:04;;;;;;;10.30;5.53;;;;;;;;;;4981661;28;20177;-42
2022/09/30 05:08:32;;;;;;;14.43;5.33;;;;;;;;;;4981770;28;20767;-43
2022/09/30 05:11:03;;;;;;;7.53;4.53;;;;;;;;;;4974921;28;20612;-43
2022/09/30 05:13:31;;;;;;;10.53;5.37;;;;;;;;;;4981392;28;20692;-43
2022/09/30 05:15:57;;;;;;;11.77;5.73;;;;;;;;;;4981312;28;20181;-45
2022/09/30 05:18:25;;;;;;;7.53;5.00;;;;;;;;;;4974978;28;20198;-45
2022/09/30 05:20:56;;;;;;;10.50;5.33;;;;;;;;;;4982147;28;20207;-44
2022/09/30 05:23:22;;;;;;;12.60;5.97;;;;;;;;;;4986521;28;20664;-44
2022/09/30 05:25:48;;;;;;;10.03;5.87;;;;;;;;;;4984314;28;20179;-44
2022/09/30 05:28:15;;;;;;;11.77;6.77;;;;;;;;;;4981420;28;20199;-44
2022/09/30 05:30:42;;;;;;;13.07;5.53;;;;;;;;;;4975675;28;20789;-45
2022/09/30 05:33:08;;;;;;;11.80;5.87;;;;;;;;;;4980745;28;20188;-45
2022/09/30 05:35:34;;;;;;;7.67;5.30;;;;;;;;;;4980012;28;20770;-43
2022/09/30 05:38:02;;;;;;;10.23;5.20;;;;;;;;;;4984533;28;20259;-44
2022/09/30 05:40:29;;;;;;;10.47;5.67;;;;;;;;;;4983571;28;20181;-42
2022/09/30 05:42:56;;;;;;;13.27;7.10;;;;;;;;;;4984250;28;20182;-44
2022/09/30 05:45:22;;;;;;;15.40;8.00;;;;;;;;;;4980285;28;20192;-44
2022/09/30 05:47:55;;;;;;;15.27;7.63;;;;;;;;;;4983677;28;20181;-44
2022/09/30 05:50:22;;;;;;;12.80;7.53;;;;;;;;;;4984299;28;20188;-44
2022/09/30 05:52:48;;;;;;;11.73;7.27;;;;;;;;;;4987591;28;20191;-43
2022/09/30 05:55:15;;;;;;;14.60;7.57;;;;;;;;;;4984663;28;20196;-44
2022/09/30 05:57:42;;;;;;;11.90;7.00;;;;;;;;;;4980337;28;20191;-44
2022/09/30 06:00:08;;;;;;;14.83;7.50;;;;;;;;;;4980217;28;20530;-43
2022/09/30 06:02:37;;;;;;;13.50;7.80;;;;;;;;;;4982274;28;20460;-45
2022/09/30 06:05:04;;;;;;;11.90;6.57;;;;;;;;;;4983656;28;20177;-43
2022/09/30 06:07:30;;;;;;;15.10;7.80;;;;;;;;;;4979177;28;20495;-46
2022/09/30 06:09:56;;;;;;;15.27;7.83;;;;;;;;;;4980664;28;20693;-42
2022/09/30 06:12:22;;;;;;;9.60;6.53;;;;;;;;;;4985881;28;20519;-43
2022/09/30 06:14:48;;;;;;;12.77;8.30;;;;;;;;;;4984802;28;20724;-43
2022/09/30 06:17:17;;;;;;;13.30;8.37;;;;;;;;;;4979482;28;20712;-43
2022/09/30 06:19:43;;;;;;;11.03;7.40;;;;;;;;;;4980761;28;20201;-43
2022/09/30 06:22:09;;;;;;;13.40;7.77;;;;;;;;;;4981531;28;20185;-42
2022/09/30 06:24:36;;;;;;;18.63;8.93;;;;;;;;;;4985080;28;20200;-43
2022/09/30 06:27:02;;;;;;;11.57;7.70;;;;;;;;;;4986282;28;20194;-42
2022/09/30 06:29:28;;;;;;;12.23;8.10;;;;;;;;;;4983992;28;20661;-42
2022/09/30 06:31:54;;;;;;;14.10;8.27;;;;;;;;;;4981761;28;20243;-41
2022/09/30 06:34:20;;;;;;;13.93;8.57;;;;;;;;;;4986496;28;20181;-42
2022/09/30 06:36:46;;;;;;;10.50;7.33;;;;;;;;;;4985092;28;20473;-42
2022/09/30 06:39:12;;;;;;;15.57;9.07;;;;;;;;;;4982514;28;20270;-42
2022/09/30 06:41:41;;;;;;;14.07;8.67;;;;;;;;;;4983546;28;20243;-42
2022/09/30 06:44:07;;;;;;;14.07;9.50;;;;;;;;;;4986228;28;20174;-41
2022/09/30 06:46:34;;;;;;;14.73;9.70;;;;;;;;;;4984702;28;20211;-43
2022/09/30 06:49:00;;;;;;;11.23;8.27;;;;;;;;;;4983736;28;20184;-43
2022/09/30 06:51:28;;;;;;;15.17;9.03;;;;;;;;;;4981463;28;20640;-42
2022/09/30 06:53:55;;;;;;;14.87;8.33;;;;;;;;;;4987412;28;20181;-43
2022/09/30 06:56:21;;;;;;;19.27;9.27;;;;;;;;;;4990898;28;20628;-43
2022/09/30 06:58:48;;;;;;;14.87;8.40;;;;;;;;;;4983234;28;20204;-42
2022/09/30 07:01:14;;;;;;;15.37;8.13;;;;;;;;;;4984450;28;20195;-43
2022/09/30 07:03:42;;;;;;;15.30;8.83;;;;;;;;;;4985052;28;20636;-43
2022/09/30 07:06:08;;;;;;;12.40;8.23;;;;;;;;;;4990476;28;20184;-42
2022/09/30 07:08:36;;;;;;;14.90;8.50;;;;;;;;;;4987266;28;20268;-42
2022/09/30 07:11:03;;;;;;;12.23;7.57;;;;;;;;;;4987305;28;20180;-42
2022/09/30 07:13:29;;;;;;;11.43;7.67;;;;;;;;;;5017359;28;20177;-42
2022/09/30 07:15:55;;;;;;;11.77;7.73;;;;;;;;;;4986373;28;20431;-42
2022/09/30 07:18:22;;;;;;;13.10;7.90;;;;;;;;;;4985453;28;20653;-42
2022/09/30 07:20:49;;;;;;;14.30;7.93;;;;;;;;;;4986857;28;20252;-42
2022/09/30 07:23:15;;;;;;;13.93;7.70;;;;;;;;;;4985808;28;20185;-43
2022/09/30 07:25:49;;;;;;;12.30;7.20;;;;;;;;;;4984826;28;20181;-42
2022/09/30 07:28:15;;;;;;;12.23;8.07;;;;;;;;;;4987523;28;20758;-42
2022/09/30 07:30:42;;;;;;;12.23;7.60;;;;;;;;;;4992034;28;20861;-42
2022/09/30 07:33:09;;;;;;;10.97;6.90;;;;;;;;;;4985473;28;20182;-43
2022/09/30 07:35:36;;;;;;;12.97;6.63;;;;;;;;;;4982166;28;20177;-43
2022/09/30 07:38:03;;;;;;;9.17;5.27;;;;;;;;;;4984288;28;20185;-43
2022/09/30 07:40:30;;;;;;;9.23;4.50;;;;;;;;;;4985473;28;20181;-43
2022/09/30 07:42:57;;;;;;;8.47;4.43;;;;;;;;;;4986034;28;20177;-43
2022/09/30 07:45:23;;;;;;;8.47;3.80;;;;;;;;;;4987049;28;20436;-43
2022/09/30 07:47:49;;;;;;;12.33;3.57;;;;;;;;;;4992219;28;20452;-44
2022/09/30 07:50:16;;;;;;;6.80;3.20;;;;;;;;;;4981908;28;20187;-43
2022/09/30 07:52:42;;;;;;;11.83;3.73;;;;;;;;;;4980030;28;20755;-43
2022/09/30 07:55:08;;;;;;;8.53;3.33;;;;;;;;;;4986307;28;20188;-43
2022/09/30 07:57:34;;;;;;;8.60;4.00;;;;;;;;;;4989671;28;21017;-42
2022/09/30 08:00:00;;;;;;;6.73;3.43;;;;;;;;;;4986588;28;20581;-44
2022/09/30 08:02:26;;;;;;;9.90;3.47;;;;;;;;;;4982385;28;20178;-44
2022/09/30 08:04:52;;;;;;;6.07;3.30;;;;;;;;;;4986085;28;20184;-44
2022/09/30 08:07:18;;;;;;;6.53;3.60;;;;;;;;;;4986119;28;20180;-42
2022/09/30 08:09:45;;;;;;;12.70;3.40;;;;;;;;;;4987375;28;20189;-42
2022/09/30 08:12:11;;;;;;;7.37;3.60;;;;;;;;;;4984456;28;20736;-44
2022/09/30 08:14:37;;;;;;;6.97;3.50;;;;;;;;;;4984071;28;20644;-43
2022/09/30 08:17:03;;;;;;;9.00;3.80;;;;;;;;;;4987423;28;20177;-43
2022/09/30 08:19:32;;;;;;;7.60;3.73;;;;;;;;;;4985484;28;20197;-43
2022/09/30 08:21:58;;;;;;;8.33;3.97;;;;;;;;;;4987357;28;20428;-42
2022/09/30 08:24:25;;;;;;;8.30;3.87;;;;;;;;;;4983409;28;20301;-43
2022/09/30 08:26:51;;;;;;;11.20;4.27;;;;;;;;;;4986317;28;21109;-43
2022/09/30 08:29:17;;;;;;;8.10;3.80;;;;;;;;;;4988713;28;20189;-43
2022/09/30 08:31:44;;;;;;;6.17;3.33;;;;;;;;;;4991791;28;20554;-43
2022/09/30 08:34:10;;;;;;;7.70;3.50;;;;;;;;;;4988941;28;20689;-43
2022/09/30 08:36:36;;;;;;;6.40;3.67;;;;;;;;;;4989187;28;20183;-43
2022/09/30 08:39:04;;;;;;;7.57;3.67;;;;;;;;;;4986150;28;20833;-43
2022/09/30 08:41:49;;;;;;;10.27;4.00;;;;;;;;;;4983342;28;20625;-43
2022/09/30 08:44:15;;;;;;;10.10;3.80;;;;;;;;;;4989319;28;20667;-43
2022/09/30 08:46:44;;;;;;;11.53;3.90;;;;;;;;;;4991029;28;20203;-43
2022/09/30 08:49:29;;;;;;;8.23;3.53;;;;;;;;;;4985958;28;20188;-43
2022/09/30 08:51:56;;;;;;;5.83;3.43;;;;;;;;;;4986523;28;20755;-41
2022/09/30 08:54:24;;;;;;;9.00;4.00;;;;;;;;;;4987640;28;20189;-43
2022/09/30 08:56:50;;;;;;;8.00;4.40;;;;;;;;;;4991158;28;20188;-43
2022/09/30 08:59:35;;;;;;;7.47;4.17;;;;;;;;;;4989117;28;20726;-42
2022/09/30 09:02:11;;;;;;;6.40;3.97;;;;;;;;;;4988802;28;20223;-43
2022/09/30 09:04:37;;;;;;;8.67;4.87;;;;;;;;;;4987318;28;21155;-44
2022/09/30 09:07:03;;;;;;;11.43;5.67;;;;;;;;;;4989953;28;20177;-43
2022/09/30 09:09:31;;;;;;;11.07;6.30;;;;;;;;;;4990873;28;20219;-43
2022/09/30 09:12:03;;;;;;;8.17;4.73;;;;;;;;;;4985588;28;20472;-43
2022/09/30 09:14:38;;;;;;;10.13;5.10;;;;;;;;;;4988297;28;20786;-43
2022/09/30 09:17:12;;;;;;;8.97;5.47;;;;;;;;;;4987782;28;20718;-43
2022/09/30 09:19:42;;;;;;;9.37;5.80;;;;;;;;;;4986616;28;20295;-43
2022/09/30 09:22:09;;;;;;;8.27;5.33;;;;;;;;;;4992759;28;20345;-43
2022/09/30 09:24:37;;;;;;;11.83;5.63;;;;;;;;;;4988500;28;20626;-43
2022/09/30 09:27:10;;;;;;;9.53;5.63;;;;;;;;;;4988841;28;20204;-43
2022/09/30 09:29:54;;;;;;;9.20;5.23;;;;;;;;;;4986437;28;20755;-44
2022/09/30 09:32:20;;;;;;;10.10;6.10;;;;;;;;;;4985187;28;20183;-44
2022/09/30 09:34:50;;;;;;;10.30;6.17;;;;;;;;;;4990296;28;20633;-43
2022/09/30 09:40:26;;;;;;;8.93;5.20;;;;;;;;;;5013184;28;21408;-42
2022/09/30 09:43:07;;;;;;;9.80;5.73;;;;;;;;;;4987356;28;20574;-42
2022/09/30 09:45:41;;;;;;;9.10;5.90;;;;;;;;;;4984175;28;20169;-42
2022/09/30 09:48:08;;;;;;;13.83;5.93;;;;;;;;;;4989771;28;20806;-42
2022/09/30 09:50:43;;;;;;;7.27;4.93;;;;;;;;;;4988870;28;20428;-41
2022/09/30 09:53:15;;;;;;;8.87;5.37;;;;;;;;;;4986567;28;20693;-42
2022/09/30 09:55:43;;;;;;;8.40;5.57;;;;;;;;;;4985230;28;20616;-41
2022/09/30 09:58:12;;;;;;;5.60;4.23;;;;;;;;;;4984891;28;20283;-42
2022/09/30 10:03:17;;;;;;;9.70;5.67;;;;;;;;;;4990602;28;20189;-41
2022/09/30 10:05:43;;;;;;;9.73;5.50;;;;;;;;;;4986935;28;20538;-43
2022/09/30 10:08:22;;;;;;;9.47;5.37;;;;;;;;;;4985366;28;20331;-43
2022/09/30 10:10:52;;;;;;;8.87;5.97;;;;;;;;;;4986436;28;20523;-43
2022/09/30 10:13:23;;;;;;;9.57;5.90;;;;;;;;;;4991911;28;20831;-43
2022/09/30 10:15:51;;;;;;;11.57;5.40;;;;;;;;;;4988625;28;20180;-43
2022/09/30 10:18:47;;;;;;;17.70;6.57;;;;;;;;;;4984806;28;20657;-43
2022/09/30 10:21:24;;;;;;;8.83;5.70;;;;;;;;;;4989246;28;20200;-43
2022/09/30 10:23:50;;;;;;;9.10;5.70;;;;;;;;;;4987956;28;20570;-43
2022/09/30 10:26:21;;;;;;;9.40;6.43;;;;;;;;;;4989430;28;20169;-44
2022/09/30 10:28:53;;;;;;;9.80;5.87;;;;;;;;;;4985776;28;20644;-44
2022/09/30 10:31:26;;;;;;;13.90;6.40;;;;;;;;;;4985044;28;20614;-43
2022/09/30 10:33:59;;;;;;;9.57;5.97;;;;;;;;;;4988159;28;20781;-41
2022/09/30 10:36:31;;;;;;;9.20;5.90;;;;;;;;;;5017731;28;20316;-43
2022/09/30 10:39:07;;;;;;;7.10;4.80;;;;;;;;;;4984310;28;20195;-43
2022/09/30 10:41:35;;;;;;;8.63;4.67;;;;;;;;;;4984218;28;20185;-43
2022/09/30 10:44:03;;;;;;;9.23;5.17;;;;;;;;;;4985469;28;20268;-42
2022/09/30 10:46:34;;;;;;;5.47;3.97;;;;;;;;;;4987206;28;20257;-42
2022/09/30 10:49:06;;;;;;;7.33;5.27;;;;;;;;;;4984734;28;20728;-42
2022/09/30 10:51:34;;;;;;;9.43;5.03;;;;;;;;;;4986906;28;21040;-42
2022/09/30 10:54:01;;;;;;;8.43;4.40;;;;;;;;;;4984965;28;20237;-40
2022/09/30 10:56:44;;;;;;;8.70;4.47;;;;;;;;;;4985207;28;20180;-42
2022/09/30 10:59:22;;;;;;;7.43;3.87;;;;;;;;;;4987795;28;20203;-40
2022/09/30 11:01:54;;;;;;;5.60;3.87;;;;;;;;;;4985742;28;20176;-40
2022/09/30 11:04:31;;;;;;;6.40;3.77;;;;;;;;;;4990874;28;20179;-40
2022/09/30 11:07:25;;;;;;;7.87;4.17;;;;;;;;;;4986084;28;20489;-40
2022/09/30 11:10:03;;;;;;;7.90;4.00;;;;;;;;;;4974423;28;20187;-41
2022/09/30 11:12:38;;;;;;;8.10;4.50;;;;;;;;;;4985518;28;20185;-40
2022/09/30 11:15:07;;;;;;;6.93;3.90;;;;;;;;;;4989937;28;20538;-41
2022/09/30 11:17:39;;;;;;;8.27;3.93;;;;;;;;;;4984868;28;20180;-41
2022/09/30 11:20:15;;;;;;;6.63;3.43;;;;;;;;;;4984542;28;20308;-39
2022/09/30 11:22:44;;;;;;;8.67;4.10;;;;;;;;;;4986858;28;20682;-42
2022/09/30 11:25:14;;;;;;;6.83;3.30;;;;;;;;;;4988930;28;20168;-41
2022/09/30 11:27:53;;;;;;;6.00;3.10;;;;;;;;;;4987386;28;20307;-40
2022/09/30 11:30:20;;;;;;;6.00;3.27;;;;;;;;;;4987656;28;20192;-42
2022/09/30 11:32:56;;;;;;;6.70;3.23;;;;;;;;;;4986069;28;20177;-41
2022/09/30 11:35:41;;;;;;;7.10;3.10;;;;;;;;;;4986371;28;20173;-41
2022/09/30 11:38:07;;;;;;;6.37;2.90;;;;;;;;;;4986653;28;20176;-40
2022/09/30 11:40:38;;;;;;;5.03;2.80;;;;;;;;;;4983355;28;21030;-39
2022/09/30 11:43:04;;;;;;;4.27;2.50;;;;;;;;;;4982330;28;20605;-41
2022/09/30 11:45:45;;;;;;;5.20;2.50;;;;;;;;;;4980287;28;20644;-41
2022/09/30 11:48:17;;;;;;;6.17;2.60;;;;;;;;;;4983346;28;20176;-41
2022/09/30 11:51:04;;;;;;;4.93;2.33;;;;;;;;;;4984724;28;20916;-41
2022/09/30 11:53:49;;;;;;;4.53;2.27;;;;;;;;;;4988279;28;20620;-41
2022/09/30 11:56:15;;;;;;;4.63;2.50;;;;;;;;;;4986478;28;20168;-41
2022/09/30 11:58:43;;;;;;;7.43;2.07;;;;;;;;;;4982795;28;20213;-42
2022/09/30 12:01:36;;;;;;;3.17;1.80;;;;;;;;;;4983036;28;20226;-40
2022/09/30 12:04:28;;;;;;;3.83;1.60;;;;;;;;;;4984133;28;20185;-40
2022/09/30 12:07:17;;;;;;;6.17;1.90;;;;;;;;;;4987314;28;20180;-41
2022/09/30 12:09:47;;;;;;;4.70;2.20;;;;;;;;;;4981217;28;20211;-41
2022/09/30 12:12:14;;;;;;;4.27;2.00;;;;;;;;;;4980112;28;20570;-40
2022/09/30 12:14:52;;;;;;;4.40;1.97;;;;;;;;;;4979009;28;20173;-40
2022/09/30 12:17:28;;;;;;;5.83;2.50;;;;;;;;;;4980708;28;20501;-41
2022/09/30 12:19:56;;;;;;;10.87;3.00;;;;;;;;;;4982203;28;20220;-39
2022/09/30 12:22:30;;;;;;;11.03;2.83;;;;;;;;;;4982115;28;20904;-41
2022/09/30 12:24:56;;;;;;;7.87;2.77;;;;;;;;;;4980006;28;20172;-41
2022/09/30 12:27:30;;;;;;;7.63;3.23;;;;;;;;;;4979085;28;20640;-41
2022/09/30 12:30:17;;;;;;;3.60;2.50;;;;;;;;;;4981479;28;20208;-40
2022/09/30 12:32:43;;;;;;;12.07;2.40;;;;;;;;;;4987186;28;20284;-39
2022/09/30 12:35:28;;;;;;;6.77;2.50;;;;;;;;;;4981893;28;20180;-42
2022/09/30 12:38:13;;;;;;;5.60;2.27;;;;;;;;;;4979582;28;20420;-43
2022/09/30 12:40:58;;;;;;;5.57;2.10;;;;;;;;;;4981038;28;20573;-38
2022/09/30 12:43:43;;;;;;;6.63;2.80;;;;;;;;;;4983015;28;20682;-40
2022/09/30 12:46:09;;;;;;;6.10;2.70;;;;;;;;;;4983683;28;20176;-39
2022/09/30 12:48:38;;;;;;;6.20;2.73;;;;;;;;;;4984400;28;20173;-41
2022/09/30 12:51:04;;;;;;;5.20;2.80;;;;;;;;;;4987366;28;20665;-39
2022/09/30 12:53:32;;;;;;;3.83;2.60;;;;;;;;;;4983030;28;20684;-40
2022/09/30 12:56:05;;;;;;;7.57;2.80;;;;;;;;;;4982057;28;20279;-40
2022/09/30 12:58:52;;;;;;;7.30;3.13;;;;;;;;;;4987476;28;20744;-41
2022/09/30 13:01:22;;;;;;;7.20;3.03;;;;;;;;;;4982793;28;20189;-39
2022/09/30 13:03:52;;;;;;;9.20;3.37;;;;;;;;;;5016083;28;20177;-40
2022/09/30 13:06:20;;;;;;;5.47;2.70;;;;;;;;;;4984362;28;20177;-40
2022/09/30 13:09:05;;;;;;;5.70;2.97;;;;;;;;;;4981791;28;20185;-39
2022/09/30 13:11:38;;;;;;;7.43;3.60;;;;;;;;;;4980966;28;20188;-41
2022/09/30 13:14:26;;;;;;;8.33;4.03;;;;;;;;;;4984416;28;20248;-41
2022/09/30 13:17:09;;;;;;;8.27;4.27;;;;;;;;;;4985544;28;20192;-42
2022/09/30 13:19:39;;;;;;;10.10;4.97;;;;;;;;;;4985135;28;20319;-40
2022/09/30 13:22:22;;;;;;;8.67;4.63;;;;;;;;;;4985599;28;20181;-41
2022/09/30 13:25:04;;;;;;;5.90;4.73;;;;;;;;;;4983617;28;20336;-41
2022/09/30 13:27:50;;;;;;;11.87;5.50;;;;;;;;;;4986085;28;20319;-42
2022/09/30 13:30:16;;;;;;;9.13;5.17;;;;;;;;;;4984801;28;20221;-42
2022/09/30 13:32:44;;;;;;;7.43;4.10;;;;;;;;;;4979952;28;20550;-42
2022/09/30 13:35:29;;;;;;;5.57;3.80;;;;;;;;;;4984715;28;20486;-40
2022/09/30 13:38:13;;;;;;;7.73;4.73;;;;;;;;;;4986855;28;20185;-42
2022/09/30 13:40:55;;;;;;;8.63;3.87;;;;;;;;;;4984957;28;20514;-41
2022/09/30 13:43:27;;;;;;;8.73;3.23;;;;;;;;;;4982342;28;20974;-41
2022/09/30 13:45:55;;;;;;;9.00;4.00;;;;;;;;;;4983667;28;20932;-42
2022/09/30 13:48:23;;;;;;;5.93;3.50;;;;;;;;;;4980986;28;20296;-43
2022/09/30 13:50:51;;;;;;;7.30;3.67;;;;;;;;;;4982119;28;20466;-42
2022/09/30 13:53:23;;;;;;;5.07;3.50;;;;;;;;;;4978728;28;20368;-42
2022/09/30 13:55:52;;;;;;;9.67;3.87;;;;;;;;;;4982316;28;20181;-41
2022/09/30 13:58:27;;;;;;;4.97;3.27;;;;;;;;;;4983256;28;21115;-42
2022/09/30 14:01:00;;;;;;;7.50;4.67;;;;;;;;;;4982602;28;20614;-42
2022/09/30 14:03:47;;;;;;;8.50;3.90;;;;;;;;;;5012425;28;20986;-42
2022/09/30 14:06:32;;;;;;;7.20;3.90;;;;;;;;;;4978964;28;20184;-41
2022/09/30 14:09:28;;;;;;;6.80;4.53;;;;;;;;;;4984739;28;20185;-41
2022/09/30 14:12:08;;;;;;;5.83;3.20;;;;;;;;;;4995175;28;20188;-41
2022/09/30 14:14:54;;;;;;;8.87;4.10;;;;;;;;;;4984655;28;20211;-42
2022/09/30 14:17:39;;;;;;;7.60;4.17;;;;;;;;;;4984520;28;21608;-41
2022/09/30 14:20:29;;;;;;;6.60;3.10;;;;;;;;;;4988472;28;20202;-41
2022/09/30 14:22:55;;;;;;;7.67;3.70;;;;;;;;;;4981988;28;20641;-42
2022/09/30 14:25:24;;;;;;;10.70;4.67;;;;;;;;;;4980731;28;20223;-41
2022/09/30 14:27:53;;;;;;;8.03;3.97;;;;;;;;;;4986985;28;20185;-41
2022/09/30 14:30:26;;;;;;;8.13;4.13;;;;;;;;;;4988315;28;20188;-42
2022/09/30 14:32:54;;;;;;;8.17;4.37;;;;;;;;;;4985706;28;21047;-41
2022/09/30 14:35:23;;;;;;;6.50;4.90;;;;;;;;;;4986774;28;20188;-42
2022/09/30 14:38:09;;;;;;;11.07;5.70;;;;;;;;;;4985063;28;20177;-40
2022/09/30 14:40:38;;;;;;;8.83;5.93;;;;;;;;;;4989546;28;20225;-41
2022/09/30 14:43:12;;;;;;;9.23;5.33;;;;;;;;;;4986751;28;20180;-41
2022/09/30 14:45:41;;;;;;;9.77;6.23;;;;;;;;;;4986614;28;20195;-40
2022/09/30 14:48:14;;;;;;;9.17;5.40;;;;;;;;;;4987939;28;21083;-41
2022/09/30 14:51:00;;;;;;;11.33;6.00;;;;;;;;;;4985073;28;20276;-41
2022/09/30 14:53:28;;;;;;;8.63;6.20;;;;;;;;;;4983748;28;20188;-40
2022/09/30 14:55:54;;;;;;;12.97;7.10;;;;;;;;;;4987458;28;20208;-41
2022/09/30 14:58:29;;;;;;;10.23;6.10;;;;;;;;;;4988398;28;21637;-39
2022/09/30 15:01:06;;;;;;;6.73;6.03;;;;;;;;;;4984456;28;20180;-42
2022/09/30 15:03:33;;;;;;;7.23;5.73;;;;;;;;;;4982472;28;20176;-41
2022/09/30 15:06:00;;;;;;;8.00;6.20;;;;;;;;;;4986134;28;20181;-41
2022/09/30 15:08:26;;;;;;;9.27;5.57;;;;;;;;;;4987985;28;20239;-41